sensor_id;sensor_type;location;lat;lon;timestamp;pressure;altitude;pressure_sealevel;temperature;humidity
59588;BME280;45412;54.472;18.464;2023-02-18T00:01:42;98030.33;;;4.67;85.05
59588;BME280;45412;54.472;18.464;2023-02-18T00:04:31;98016.86;;;4.68;84.43
59588;BME280;45412;54.472;18.464;2023-02-18T00:07:19;98037.75;;;4.72;83.85
59588;BME280;45412;54.472;18.464;2023-02-18T00:10:13;98042.63;;;4.77;82.60
59588;BME280;45412;54.472;18.464;2023-02-18T00:13:01;98048.83;;;4.81;82.73
59588;BME280;45412;54.472;18.464;2023-02-18T00:15:49;98037.58;;;4.83;81.88
59588;BME280;45412;54.472;18.464;2023-02-18T00:18:38;98040.52;;;4.85;80.98
59588;BME280;45412;54.472;18.464;2023-02-18T00:21:27;98037.54;;;4.87;79.70
59588;BME280;45412;54.472;18.464;2023-02-18T00:24:15;98053.29;;;4.92;79.23
59588;BME280;45412;54.472;18.464;2023-02-18T00:27:03;98068.51;;;4.95;78.99
59588;BME280;45412;54.472;18.464;2023-02-18T00:29:51;98058.22;;;4.96;78.95
59588;BME280;45412;54.472;18.464;2023-02-18T00:32:38;98075.09;;;4.98;79.09
59588;BME280;45412;54.472;18.464;2023-02-18T00:35:26;98074.61;;;4.94;78.63
59588;BME280;45412;54.472;18.464;2023-02-18T00:38:15;98064.08;;;4.98;77.64
59588;BME280;45412;54.472;18.464;2023-02-18T00:41:04;98079.17;;;5.00;77.35
59588;BME280;45412;54.472;18.464;2023-02-18T00:43:53;98079.39;;;5.03;76.48
59588;BME280;45412;54.472;18.464;2023-02-18T00:46:42;98106.85;;;5.05;75.92
59588;BME280;45412;54.472;18.464;2023-02-18T00:49:30;98100.47;;;5.07;76.06
59588;BME280;45412;54.472;18.464;2023-02-18T00:52:18;98104.46;;;5.08;76.16
59588;BME280;45412;54.472;18.464;2023-02-18T00:55:05;98111.69;;;5.08;75.28
59588;BME280;45412;54.472;18.464;2023-02-18T00:57:53;98093.48;;;5.09;74.80
59588;BME280;45412;54.472;18.464;2023-02-18T01:00:42;98107.84;;;5.10;74.49
59588;BME280;45412;54.472;18.464;2023-02-18T01:03:32;98104.35;;;5.10;74.35
59588;BME280;45412;54.472;18.464;2023-02-18T01:06:20;98105.55;;;5.10;74.75
59588;BME280;45412;54.472;18.464;2023-02-18T01:09:09;98111.98;;;5.09;75.67
59588;BME280;45412;54.472;18.464;2023-02-18T01:11:57;98115.56;;;5.06;76.42
59588;BME280;45412;54.472;18.464;2023-02-18T01:14:45;98122.21;;;5.02;75.77
59588;BME280;45412;54.472;18.464;2023-02-18T01:17:33;98136.83;;;5.00;74.43
59588;BME280;45412;54.472;18.464;2023-02-18T01:20:23;98132.33;;;5.01;73.99
59588;BME280;45412;54.472;18.464;2023-02-18T01:23:12;98126.98;;;5.02;73.81
59588;BME280;45412;54.472;18.464;2023-02-18T01:26:00;98130.73;;;5.01;73.86
59588;BME280;45412;54.472;18.464;2023-02-18T01:28:49;98116.63;;;5.00;72.87
59588;BME280;45412;54.472;18.464;2023-02-18T01:31:37;98150.16;;;5.02;72.76
59588;BME280;45412;54.472;18.464;2023-02-18T01:34:25;98153.33;;;5.02;73.30
59588;BME280;45412;54.472;18.464;2023-02-18T01:37:13;98149.77;;;5.01;72.57
59588;BME280;45412;54.472;18.464;2023-02-18T01:40:01;98146.52;;;5.00;72.91
59588;BME280;45412;54.472;18.464;2023-02-18T01:42:49;98136.23;;;4.99;72.09
59588;BME280;45412;54.472;18.464;2023-02-18T01:45:59;98153.52;;;4.98;72.18
59588;BME280;45412;54.472;18.464;2023-02-18T01:48:59;98147.42;;;4.98;71.69
59588;BME280;45412;54.472;18.464;2023-02-18T01:52:01;98151.52;;;4.99;72.16
59588;BME280;45412;54.472;18.464;2023-02-18T01:54:55;98163.53;;;4.96;72.08
59588;BME280;45412;54.472;18.464;2023-02-18T01:57:46;98159.02;;;4.93;71.74
59588;BME280;45412;54.472;18.464;2023-02-18T02:00:34;98146.17;;;4.91;71.79
59588;BME280;45412;54.472;18.464;2023-02-18T02:03:23;98165.66;;;4.89;71.92
59588;BME280;45412;54.472;18.464;2023-02-18T02:06:18;98159.84;;;4.89;72.20
59588;BME280;45412;54.472;18.464;2023-02-18T02:09:12;98150.68;;;4.88;71.44
59588;BME280;45412;54.472;18.464;2023-02-18T02:15:50;98157.77;;;4.85;71.58
59588;BME280;45412;54.472;18.464;2023-02-18T02:19:28;98173.61;;;4.85;71.04
59588;BME280;45412;54.472;18.464;2023-02-18T02:35:25;98159.75;;;4.76;71.01
59588;BME280;45412;54.472;18.464;2023-02-18T02:38:30;98173.40;;;4.76;71.48
59588;BME280;45412;54.472;18.464;2023-02-18T02:44:57;98170.57;;;4.75;70.40
59588;BME280;45412;54.472;18.464;2023-02-18T02:48:09;98158.09;;;4.73;70.72
59588;BME280;45412;54.472;18.464;2023-02-18T02:51:15;98171.98;;;4.71;70.98
59588;BME280;45412;54.472;18.464;2023-02-18T02:54:20;98157.77;;;4.68;71.10
59588;BME280;45412;54.472;18.464;2023-02-18T03:04:21;98184.77;;;4.67;70.53
59588;BME280;45412;54.472;18.464;2023-02-18T03:14:06;98179.69;;;4.64;71.18
59588;BME280;45412;54.472;18.464;2023-02-18T03:17:29;98186.98;;;4.63;71.28
59588;BME280;45412;54.472;18.464;2023-02-18T03:20:34;98198.14;;;4.60;71.15
59588;BME280;45412;54.472;18.464;2023-02-18T03:26:47;98192.33;;;4.54;71.11
59588;BME280;45412;54.472;18.464;2023-02-18T03:29:38;98212.59;;;4.53;71.04
59588;BME280;45412;54.472;18.464;2023-02-18T03:32:28;98188.58;;;4.52;71.18
59588;BME280;45412;54.472;18.464;2023-02-18T03:35:18;98210.80;;;4.51;71.13
59588;BME280;45412;54.472;18.464;2023-02-18T03:38:17;98217.92;;;4.50;70.82
59588;BME280;45412;54.472;18.464;2023-02-18T03:41:06;98216.28;;;4.51;70.81
59588;BME280;45412;54.472;18.464;2023-02-18T03:44:00;98214.58;;;4.50;71.34
59588;BME280;45412;54.472;18.464;2023-02-18T03:46:49;98234.61;;;4.50;71.48
59588;BME280;45412;54.472;18.464;2023-02-18T03:49:38;98228.28;;;4.50;71.39
59588;BME280;45412;54.472;18.464;2023-02-18T03:52:26;98233.87;;;4.48;71.41
59588;BME280;45412;54.472;18.464;2023-02-18T03:55:14;98228.48;;;4.48;71.16
59588;BME280;45412;54.472;18.464;2023-02-18T03:58:02;98232.07;;;4.45;70.89
59588;BME280;45412;54.472;18.464;2023-02-18T04:00:50;98250.38;;;4.44;71.25
59588;BME280;45412;54.472;18.464;2023-02-18T04:03:38;98237.30;;;4.43;70.69
59588;BME280;45412;54.472;18.464;2023-02-18T04:06:27;98244.85;;;4.43;71.18
59588;BME280;45412;54.472;18.464;2023-02-18T04:09:15;98245.31;;;4.41;71.04
59588;BME280;45412;54.472;18.464;2023-02-18T04:12:03;98244.80;;;4.39;71.33
59588;BME280;45412;54.472;18.464;2023-02-18T04:14:51;98250.66;;;4.38;71.47
59588;BME280;45412;54.472;18.464;2023-02-18T04:17:39;98270.27;;;4.37;71.28
59588;BME280;45412;54.472;18.464;2023-02-18T04:20:28;98280.20;;;4.35;71.17
59588;BME280;45412;54.472;18.464;2023-02-18T04:23:16;98275.14;;;4.33;71.29
59588;BME280;45412;54.472;18.464;2023-02-18T04:26:04;98267.63;;;4.32;71.23
59588;BME280;45412;54.472;18.464;2023-02-18T04:28:52;98279.80;;;4.32;71.75
59588;BME280;45412;54.472;18.464;2023-02-18T04:31:40;98275.82;;;4.29;71.71
59588;BME280;45412;54.472;18.464;2023-02-18T04:34:28;98280.39;;;4.26;71.54
59588;BME280;45412;54.472;18.464;2023-02-18T04:37:16;98280.96;;;4.26;71.47
59588;BME280;45412;54.472;18.464;2023-02-18T04:40:04;98292.81;;;4.25;71.55
59588;BME280;45412;54.472;18.464;2023-02-18T04:42:52;98301.84;;;4.24;71.70
59588;BME280;45412;54.472;18.464;2023-02-18T04:45:40;98306.52;;;4.23;72.05
59588;BME280;45412;54.472;18.464;2023-02-18T04:48:28;98319.36;;;4.20;72.00
59588;BME280;45412;54.472;18.464;2023-02-18T04:51:16;98298.92;;;4.19;72.07
59588;BME280;45412;54.472;18.464;2023-02-18T04:54:04;98314.70;;;4.19;72.01
59588;BME280;45412;54.472;18.464;2023-02-18T04:56:53;98316.33;;;4.18;71.54
59588;BME280;45412;54.472;18.464;2023-02-18T04:59:41;98312.70;;;4.15;71.97
59588;BME280;45412;54.472;18.464;2023-02-18T05:02:29;98309.48;;;4.14;71.88
59588;BME280;45412;54.472;18.464;2023-02-18T05:05:17;98327.42;;;4.11;72.17
59588;BME280;45412;54.472;18.464;2023-02-18T05:08:04;98332.48;;;4.09;71.94
59588;BME280;45412;54.472;18.464;2023-02-18T05:10:52;98327.09;;;4.06;72.30
59588;BME280;45412;54.472;18.464;2023-02-18T05:13:40;98343.51;;;4.05;72.57
59588;BME280;45412;54.472;18.464;2023-02-18T05:16:29;98339.52;;;4.02;73.03
59588;BME280;45412;54.472;18.464;2023-02-18T05:19:17;98352.45;;;3.98;73.02
59588;BME280;45412;54.472;18.464;2023-02-18T05:22:05;98343.17;;;3.94;73.67
59588;BME280;45412;54.472;18.464;2023-02-18T05:24:52;98367.59;;;3.94;73.66
59588;BME280;45412;54.472;18.464;2023-02-18T05:27:40;98366.80;;;3.92;73.52
59588;BME280;45412;54.472;18.464;2023-02-18T05:30:29;98354.63;;;3.90;73.75
59588;BME280;45412;54.472;18.464;2023-02-18T05:33:16;98362.67;;;3.87;73.57
59588;BME280;45412;54.472;18.464;2023-02-18T05:36:05;98370.56;;;3.82;73.90
59588;BME280;45412;54.472;18.464;2023-02-18T05:38:53;98369.64;;;3.80;73.18
59588;BME280;45412;54.472;18.464;2023-02-18T05:41:41;98378.66;;;3.77;73.69
59588;BME280;45412;54.472;18.464;2023-02-18T05:44:29;98368.33;;;3.72;73.99
59588;BME280;45412;54.472;18.464;2023-02-18T05:47:17;98391.75;;;3.66;74.01
59588;BME280;45412;54.472;18.464;2023-02-18T05:50:06;98377.98;;;3.63;74.18
59588;BME280;45412;54.472;18.464;2023-02-18T05:52:54;98384.27;;;3.61;74.22
59588;BME280;45412;54.472;18.464;2023-02-18T05:55:42;98397.42;;;3.58;74.32
59588;BME280;45412;54.472;18.464;2023-02-18T05:58:30;98408.44;;;3.54;74.31
59588;BME280;45412;54.472;18.464;2023-02-18T06:01:18;98402.98;;;3.54;73.91
59588;BME280;45412;54.472;18.464;2023-02-18T06:04:06;98407.69;;;3.54;73.94
59588;BME280;45412;54.472;18.464;2023-02-18T06:06:54;98419.95;;;3.55;74.26
59588;BME280;45412;54.472;18.464;2023-02-18T06:09:42;98413.58;;;3.53;73.99
59588;BME280;45412;54.472;18.464;2023-02-18T06:12:30;98425.80;;;3.52;74.12
59588;BME280;45412;54.472;18.464;2023-02-18T06:15:17;98423.48;;;3.52;74.25
59588;BME280;45412;54.472;18.464;2023-02-18T06:18:06;98435.95;;;3.52;74.24
59588;BME280;45412;54.472;18.464;2023-02-18T06:20:54;98427.41;;;3.56;74.27
59588;BME280;45412;54.472;18.464;2023-02-18T06:23:42;98450.09;;;3.58;73.81
59588;BME280;45412;54.472;18.464;2023-02-18T06:26:30;98442.09;;;3.62;73.90
59588;BME280;45412;54.472;18.464;2023-02-18T06:29:18;98444.71;;;3.64;74.16
59588;BME280;45412;54.472;18.464;2023-02-18T06:32:06;98456.90;;;3.65;74.17
59588;BME280;45412;54.472;18.464;2023-02-18T06:34:54;98440.58;;;3.68;74.16
59588;BME280;45412;54.472;18.464;2023-02-18T06:37:42;98469.13;;;3.71;73.76
59588;BME280;45412;54.472;18.464;2023-02-18T06:40:31;98461.00;;;3.76;74.08
59588;BME280;45412;54.472;18.464;2023-02-18T06:43:20;98479.63;;;3.83;74.17
59588;BME280;45412;54.472;18.464;2023-02-18T06:46:08;98471.75;;;3.89;73.94
59588;BME280;45412;54.472;18.464;2023-02-18T06:48:57;98479.27;;;3.95;73.61
59588;BME280;45412;54.472;18.464;2023-02-18T06:51:45;98489.77;;;4.00;73.01
59588;BME280;45412;54.472;18.464;2023-02-18T06:54:33;98481.34;;;4.04;72.86
59588;BME280;45412;54.472;18.464;2023-02-18T06:57:21;98484.43;;;4.10;72.86
59588;BME280;45412;54.472;18.464;2023-02-18T07:00:10;98487.33;;;4.20;72.21
59588;BME280;45412;54.472;18.464;2023-02-18T07:02:58;98501.09;;;4.19;71.73
59588;BME280;45412;54.472;18.464;2023-02-18T07:05:46;98491.62;;;4.22;71.70
59588;BME280;45412;54.472;18.464;2023-02-18T07:08:33;98501.03;;;4.30;71.37
59588;BME280;45412;54.472;18.464;2023-02-18T07:11:24;98493.38;;;4.33;71.47
59588;BME280;45412;54.472;18.464;2023-02-18T07:14:12;98509.23;;;4.37;70.89
59588;BME280;45412;54.472;18.464;2023-02-18T07:16:59;98507.93;;;4.50;70.71
59588;BME280;45412;54.472;18.464;2023-02-18T07:19:47;98507.55;;;4.64;70.49
59588;BME280;45412;54.472;18.464;2023-02-18T07:22:35;98518.53;;;4.72;69.68
59588;BME280;45412;54.472;18.464;2023-02-18T07:25:23;98513.89;;;4.66;68.89
59588;BME280;45412;54.472;18.464;2023-02-18T07:28:11;98512.53;;;4.67;69.22
59588;BME280;45412;54.472;18.464;2023-02-18T07:30:59;98518.61;;;4.77;68.93
59588;BME280;45412;54.472;18.464;2023-02-18T07:33:48;98515.16;;;4.83;69.01
59588;BME280;45412;54.472;18.464;2023-02-18T07:36:36;98519.42;;;4.92;68.09
59588;BME280;45412;54.472;18.464;2023-02-18T07:39:24;98512.02;;;5.01;67.63
59588;BME280;45412;54.472;18.464;2023-02-18T07:42:12;98517.52;;;5.44;66.22
59588;BME280;45412;54.472;18.464;2023-02-18T07:45:00;98513.46;;;6.55;62.69
59588;BME280;45412;54.472;18.464;2023-02-18T07:47:48;98507.45;;;7.68;59.02
59588;BME280;45412;54.472;18.464;2023-02-18T07:50:41;98511.77;;;8.20;55.67
59588;BME280;45412;54.472;18.464;2023-02-18T07:53:30;98517.04;;;8.47;54.10
59588;BME280;45412;54.472;18.464;2023-02-18T07:56:18;98523.92;;;9.11;52.79
59588;BME280;45412;54.472;18.464;2023-02-18T07:59:06;98527.66;;;9.80;50.83
59588;BME280;45412;54.472;18.464;2023-02-18T08:01:54;98531.84;;;10.22;49.50
59588;BME280;45412;54.472;18.464;2023-02-18T08:04:42;98537.16;;;9.87;49.51
59588;BME280;45412;54.472;18.464;2023-02-18T08:07:39;98530.79;;;10.39;48.70
59588;BME280;45412;54.472;18.464;2023-02-18T08:10:27;98536.89;;;10.41;48.18
59588;BME280;45412;54.472;18.464;2023-02-18T08:13:15;98540.91;;;10.70;47.79
59588;BME280;45412;54.472;18.464;2023-02-18T08:16:03;98543.08;;;10.75;47.05
59588;BME280;45412;54.472;18.464;2023-02-18T08:18:52;98542.04;;;11.18;46.59
59588;BME280;45412;54.472;18.464;2023-02-18T08:21:40;98540.47;;;11.58;45.54
59588;BME280;45412;54.472;18.464;2023-02-18T08:24:28;98551.64;;;11.31;45.14
59588;BME280;45412;54.472;18.464;2023-02-18T08:27:16;98550.59;;;11.82;44.64
59588;BME280;45412;54.472;18.464;2023-02-18T08:30:05;98552.52;;;12.07;43.35
59588;BME280;45412;54.472;18.464;2023-02-18T08:32:53;98550.88;;;13.00;42.61
59588;BME280;45412;54.472;18.464;2023-02-18T08:35:42;98564.07;;;13.40;41.13
59588;BME280;45412;54.472;18.464;2023-02-18T08:38:30;98566.39;;;12.89;41.31
59588;BME280;45412;54.472;18.464;2023-02-18T08:41:19;98564.96;;;12.35;42.79
59588;BME280;45412;54.472;18.464;2023-02-18T08:44:07;98573.41;;;11.58;43.90
59588;BME280;45412;54.472;18.464;2023-02-18T08:46:55;98576.34;;;11.40;45.01
59588;BME280;45412;54.472;18.464;2023-02-18T08:49:43;98583.88;;;11.27;45.28
59588;BME280;45412;54.472;18.464;2023-02-18T08:52:31;98573.98;;;10.83;46.35
59588;BME280;45412;54.472;18.464;2023-02-18T08:55:19;98583.38;;;10.94;46.50
59588;BME280;45412;54.472;18.464;2023-02-18T08:58:08;98576.65;;;10.40;46.82
59588;BME280;45412;54.472;18.464;2023-02-18T09:01:01;98592.67;;;9.77;48.79
59588;BME280;45412;54.472;18.464;2023-02-18T09:03:49;98588.26;;;9.53;49.87
59588;BME280;45412;54.472;18.464;2023-02-18T09:06:38;98592.59;;;9.17;50.81
59588;BME280;45412;54.472;18.464;2023-02-18T09:09:25;98591.60;;;8.73;51.49
59588;BME280;45412;54.472;18.464;2023-02-18T09:12:13;98585.14;;;9.17;51.29
59588;BME280;45412;54.472;18.464;2023-02-18T09:15:02;98598.06;;;9.24;51.10
59588;BME280;45412;54.472;18.464;2023-02-18T09:17:51;98598.19;;;9.08;51.67
59588;BME280;45412;54.472;18.464;2023-02-18T09:20:39;98594.01;;;8.60;52.26
59588;BME280;45412;54.472;18.464;2023-02-18T09:23:30;98601.27;;;8.17;53.29
59588;BME280;45412;54.472;18.464;2023-02-18T09:26:19;98610.64;;;8.25;53.51
59588;BME280;45412;54.472;18.464;2023-02-18T09:29:09;98604.76;;;8.23;53.47
59588;BME280;45412;54.472;18.464;2023-02-18T09:32:02;98617.76;;;8.30;53.75
59588;BME280;45412;54.472;18.464;2023-02-18T09:34:49;98619.29;;;8.83;53.45
59588;BME280;45412;54.472;18.464;2023-02-18T09:37:37;98614.38;;;9.19;51.59
59588;BME280;45412;54.472;18.464;2023-02-18T09:40:32;98616.54;;;9.25;51.20
59588;BME280;45412;54.472;18.464;2023-02-18T09:43:28;98618.97;;;8.85;51.45
59588;BME280;45412;54.472;18.464;2023-02-18T09:46:31;98628.91;;;8.92;51.85
59588;BME280;45412;54.472;18.464;2023-02-18T09:49:26;98628.95;;;9.01;51.39
59588;BME280;45412;54.472;18.464;2023-02-18T09:52:28;98630.15;;;9.09;51.41
59588;BME280;45412;54.472;18.464;2023-02-18T09:55:26;98624.52;;;9.94;49.74
59588;BME280;45412;54.472;18.464;2023-02-18T09:58:24;98625.11;;;11.00;45.96
59588;BME280;45412;54.472;18.464;2023-02-18T10:01:49;98633.27;;;10.49;45.50
59588;BME280;45412;54.472;18.464;2023-02-18T10:04:43;98633.64;;;9.77;46.58
59588;BME280;45412;54.472;18.464;2023-02-18T10:07:39;98634.13;;;9.04;48.24
59588;BME280;45412;54.472;18.464;2023-02-18T10:10:46;98646.16;;;8.64;49.05
59588;BME280;45412;54.472;18.464;2023-02-18T10:13:34;98646.17;;;8.24;49.24
59588;BME280;45412;54.472;18.464;2023-02-18T10:16:24;98652.36;;;7.81;50.36
59588;BME280;45412;54.472;18.464;2023-02-18T10:19:34;98638.02;;;7.35;51.77
59588;BME280;45412;54.472;18.464;2023-02-18T10:22:25;98646.79;;;7.00;53.10
59588;BME280;45412;54.472;18.464;2023-02-18T10:25:20;98641.34;;;6.73;54.71
59588;BME280;45412;54.472;18.464;2023-02-18T10:28:11;98653.24;;;6.63;55.61
59588;BME280;45412;54.472;18.464;2023-02-18T10:31:09;98641.77;;;6.55;56.27
59588;BME280;45412;54.472;18.464;2023-02-18T10:41:08;98638.36;;;7.10;57.30
59588;BME280;45412;54.472;18.464;2023-02-18T10:47:37;98641.23;;;7.34;56.67
59588;BME280;45412;54.472;18.464;2023-02-18T10:50:37;98646.11;;;8.09;53.47
59588;BME280;45412;54.472;18.464;2023-02-18T10:53:38;98649.13;;;7.73;53.35
59588;BME280;45412;54.472;18.464;2023-02-18T10:56:46;98643.75;;;7.52;53.51
59588;BME280;45412;54.472;18.464;2023-02-18T10:59:34;98638.48;;;7.66;53.02
59588;BME280;45412;54.472;18.464;2023-02-18T11:02:26;98621.35;;;8.84;50.55
59588;BME280;45412;54.472;18.464;2023-02-18T11:08:12;98639.70;;;9.31;48.92
59588;BME280;45412;54.472;18.464;2023-02-18T11:11:14;98639.61;;;8.98;48.97
59588;BME280;45412;54.472;18.464;2023-02-18T11:14:07;98637.37;;;9.28;48.58
59588;BME280;45412;54.472;18.464;2023-02-18T11:17:29;98634.16;;;10.00;46.93
59588;BME280;45412;54.472;18.464;2023-02-18T11:20:36;98634.98;;;9.95;47.51
59588;BME280;45412;54.472;18.464;2023-02-18T11:23:24;98631.17;;;10.32;46.53
59588;BME280;45412;54.472;18.464;2023-02-18T11:26:14;98633.77;;;10.83;45.25
59588;BME280;45412;54.472;18.464;2023-02-18T11:29:24;98627.67;;;10.48;44.04
59588;BME280;45412;54.472;18.464;2023-02-18T11:32:16;98627.73;;;10.37;44.17
59588;BME280;45412;54.472;18.464;2023-02-18T11:35:05;98634.63;;;9.97;45.38
59588;BME280;45412;54.472;18.464;2023-02-18T11:37:53;98627.59;;;9.77;46.54
59588;BME280;45412;54.472;18.464;2023-02-18T11:40:52;98622.56;;;9.35;47.88
59588;BME280;45412;54.472;18.464;2023-02-18T11:43:46;98620.04;;;8.98;49.29
59588;BME280;45412;54.472;18.464;2023-02-18T11:46:35;98611.36;;;10.09;46.75
59588;BME280;45412;54.472;18.464;2023-02-18T11:49:24;98612.38;;;10.91;43.87
59588;BME280;45412;54.472;18.464;2023-02-18T11:52:36;98616.09;;;11.48;42.78
59588;BME280;45412;54.472;18.464;2023-02-18T11:55:29;98607.91;;;11.81;41.46
59588;BME280;45412;54.472;18.464;2023-02-18T11:58:19;98610.48;;;11.92;41.25
59588;BME280;45412;54.472;18.464;2023-02-18T12:04:27;98602.67;;;11.56;40.09
59588;BME280;45412;54.472;18.464;2023-02-18T12:07:43;98619.16;;;11.48;40.23
59588;BME280;45412;54.472;18.464;2023-02-18T12:10:49;98622.77;;;11.20;41.07
59588;BME280;45412;54.472;18.464;2023-02-18T12:13:55;98624.00;;;11.06;41.96
59588;BME280;45412;54.472;18.464;2023-02-18T12:24:00;98623.36;;;11.09;41.16
59588;BME280;45412;54.472;18.464;2023-02-18T12:27:18;98627.20;;;10.65;42.74
59588;BME280;45412;54.472;18.464;2023-02-18T12:30:56;98624.66;;;10.18;44.56
59588;BME280;45412;54.472;18.464;2023-02-18T12:34:18;98629.15;;;9.44;46.82
59588;BME280;45412;54.472;18.464;2023-02-18T12:37:56;98639.30;;;8.62;49.26
59588;BME280;45412;54.472;18.464;2023-02-18T12:44:30;98645.25;;;7.85;53.24
59588;BME280;45412;54.472;18.464;2023-02-18T13:16:59;98646.45;;;6.24;60.50
59588;BME280;45412;54.472;18.464;2023-02-18T13:20:23;98647.38;;;6.19;61.06
59588;BME280;45412;54.472;18.464;2023-02-18T13:23:23;98649.97;;;6.15;61.25
59588;BME280;45412;54.472;18.464;2023-02-18T13:26:15;98650.46;;;6.01;61.74
59588;BME280;45412;54.472;18.464;2023-02-18T13:38:50;98645.99;;;5.94;63.32
59588;BME280;45412;54.472;18.464;2023-02-18T13:41:41;98644.92;;;5.86;62.97
59588;BME280;45412;54.472;18.464;2023-02-18T13:47:44;98639.41;;;5.71;63.45
59588;BME280;45412;54.472;18.464;2023-02-18T13:50:41;98640.21;;;5.66;63.77
59588;BME280;45412;54.472;18.464;2023-02-18T13:53:37;98641.85;;;5.62;64.10
59588;BME280;45412;54.472;18.464;2023-02-18T13:56:39;98642.09;;;5.62;64.60
59588;BME280;45412;54.472;18.464;2023-02-18T13:59:43;98644.86;;;5.62;64.84
59588;BME280;45412;54.472;18.464;2023-02-18T14:02:35;98640.63;;;5.60;64.69
59588;BME280;45412;54.472;18.464;2023-02-18T14:05:24;98645.05;;;5.56;65.13
59588;BME280;45412;54.472;18.464;2023-02-18T14:08:35;98639.09;;;5.49;65.35
59588;BME280;45412;54.472;18.464;2023-02-18T14:11:32;98638.58;;;5.37;65.24
59588;BME280;45412;54.472;18.464;2023-02-18T14:22:56;98629.89;;;5.00;65.41
59588;BME280;45412;54.472;18.464;2023-02-18T14:26:16;98628.70;;;4.99;65.67
59588;BME280;45412;54.472;18.464;2023-02-18T14:29:25;98628.55;;;4.99;65.88
59588;BME280;45412;54.472;18.464;2023-02-18T14:32:17;98635.34;;;4.95;66.64
59588;BME280;45412;54.472;18.464;2023-02-18T14:39:09;98633.52;;;4.91;66.82
59588;BME280;45412;54.472;18.464;2023-02-18T14:51:09;98640.88;;;4.83;67.98
59588;BME280;45412;54.472;18.464;2023-02-18T14:54:09;98642.68;;;4.77;68.29
59588;BME280;45412;54.472;18.464;2023-02-18T14:57:07;98648.69;;;4.72;68.67
59588;BME280;45412;54.472;18.464;2023-02-18T14:59:59;98649.28;;;4.69;68.92
59588;BME280;45412;54.472;18.464;2023-02-18T15:02:54;98648.27;;;4.66;68.37
59588;BME280;45412;54.472;18.464;2023-02-18T15:05:43;98650.45;;;4.63;68.51
59588;BME280;45412;54.472;18.464;2023-02-18T15:08:37;98649.14;;;4.59;68.78
59588;BME280;45412;54.472;18.464;2023-02-18T15:11:45;98650.10;;;4.56;69.59
59588;BME280;45412;54.472;18.464;2023-02-18T15:14:40;98657.81;;;4.51;69.85
59588;BME280;45412;54.472;18.464;2023-02-18T15:17:29;98657.05;;;4.48;69.76
59588;BME280;45412;54.472;18.464;2023-02-18T15:20:18;98652.28;;;4.43;70.54
59588;BME280;45412;54.472;18.464;2023-02-18T15:23:15;98649.05;;;4.41;71.01
59588;BME280;45412;54.472;18.464;2023-02-18T15:26:05;98644.60;;;4.39;71.32
59588;BME280;45412;54.472;18.464;2023-02-18T15:29:00;98645.08;;;4.36;71.88
59588;BME280;45412;54.472;18.464;2023-02-18T15:31:48;98645.97;;;4.31;72.48
59588;BME280;45412;54.472;18.464;2023-02-18T15:34:38;98648.66;;;4.28;73.11
59588;BME280;45412;54.472;18.464;2023-02-18T15:37:28;98647.34;;;4.26;73.14
59588;BME280;45412;54.472;18.464;2023-02-18T15:40:17;98647.17;;;4.24;73.57
59588;BME280;45412;54.472;18.464;2023-02-18T15:43:06;98655.21;;;4.20;73.97
59588;BME280;45412;54.472;18.464;2023-02-18T15:45:56;98661.70;;;4.18;74.30
59588;BME280;45412;54.472;18.464;2023-02-18T15:48:47;98668.65;;;4.16;74.59
59588;BME280;45412;54.472;18.464;2023-02-18T15:51:40;98666.33;;;4.17;74.61
59588;BME280;45412;54.472;18.464;2023-02-18T15:54:30;98667.28;;;4.18;74.69
59588;BME280;45412;54.472;18.464;2023-02-18T15:57:24;98676.80;;;4.17;74.97
59588;BME280;45412;54.472;18.464;2023-02-18T16:00:20;98673.21;;;4.12;75.05
59588;BME280;45412;54.472;18.464;2023-02-18T16:06:20;98671.58;;;4.02;75.49
59588;BME280;45412;54.472;18.464;2023-02-18T16:09:24;98677.57;;;4.00;75.87
59588;BME280;45412;54.472;18.464;2023-02-18T16:12:28;98680.17;;;3.95;75.92
59588;BME280;45412;54.472;18.464;2023-02-18T16:15:29;98685.85;;;3.92;75.76
59588;BME280;45412;54.472;18.464;2023-02-18T16:18:30;98680.13;;;3.86;76.16
59588;BME280;45412;54.472;18.464;2023-02-18T16:21:39;98682.29;;;3.83;76.09
59588;BME280;45412;54.472;18.464;2023-02-18T16:24:39;98678.44;;;3.75;76.35
59588;BME280;45412;54.472;18.464;2023-02-18T16:27:32;98679.52;;;3.72;76.63
59588;BME280;45412;54.472;18.464;2023-02-18T16:30:30;98678.79;;;3.68;76.32
59588;BME280;45412;54.472;18.464;2023-02-18T16:33:19;98682.77;;;3.64;76.38
59588;BME280;45412;54.472;18.464;2023-02-18T16:36:12;98692.59;;;3.59;76.54
59588;BME280;45412;54.472;18.464;2023-02-18T16:39:01;98691.45;;;3.55;76.90
59588;BME280;45412;54.472;18.464;2023-02-18T16:41:50;98695.88;;;3.52;77.10
59588;BME280;45412;54.472;18.464;2023-02-18T16:44:39;98699.55;;;3.49;77.06
59588;BME280;45412;54.472;18.464;2023-02-18T16:47:27;98701.73;;;3.46;77.52
59588;BME280;45412;54.472;18.464;2023-02-18T16:50:19;98708.17;;;3.44;77.79
59588;BME280;45412;54.472;18.464;2023-02-18T16:53:11;98711.14;;;3.44;78.07
59588;BME280;45412;54.472;18.464;2023-02-18T16:55:59;98712.48;;;3.45;77.92
59588;BME280;45412;54.472;18.464;2023-02-18T16:58:48;98717.48;;;3.46;78.18
59588;BME280;45412;54.472;18.464;2023-02-18T17:01:40;98726.86;;;3.47;78.12
59588;BME280;45412;54.472;18.464;2023-02-18T17:04:30;98727.21;;;3.47;78.16
59588;BME280;45412;54.472;18.464;2023-02-18T17:07:18;98731.72;;;3.48;78.14
59588;BME280;45412;54.472;18.464;2023-02-18T17:10:06;98732.09;;;3.51;78.02
59588;BME280;45412;54.472;18.464;2023-02-18T17:12:54;98737.19;;;3.53;78.04
59588;BME280;45412;54.472;18.464;2023-02-18T17:15:42;98739.73;;;3.54;78.28
59588;BME280;45412;54.472;18.464;2023-02-18T17:18:34;98738.48;;;3.54;78.24
59588;BME280;45412;54.472;18.464;2023-02-18T17:21:24;98749.49;;;3.55;78.38
59588;BME280;45412;54.472;18.464;2023-02-18T17:24:14;98745.55;;;3.56;78.40
59588;BME280;45412;54.472;18.464;2023-02-18T17:27:02;98745.96;;;3.58;78.10